sensor_id;sensor_type;location;lat;lon;timestamp;pressure;altitude;pressure_sealevel;temperature;humidity
7178;BME280;3630;42.146;24.756;2022-12-07T00:01:20;99652.28;;;8.36;91.67
7178;BME280;3630;42.146;24.756;2022-12-07T00:03:56;99647.22;;;8.37;91.22
7178;BME280;3630;42.146;24.756;2022-12-07T00:06:30;99655.59;;;8.32;90.86
7178;BME280;3630;42.146;24.756;2022-12-07T00:08:58;99664.06;;;8.29;91.26
7178;BME280;3630;42.146;24.756;2022-12-07T00:11:25;99658.75;;;8.24;90.91
7178;BME280;3630;42.146;24.756;2022-12-07T00:13:53;99657.03;;;8.23;90.74
7178;BME280;3630;42.146;24.756;2022-12-07T00:16:22;99660.41;;;8.22;90.42
7178;BME280;3630;42.146;24.756;2022-12-07T00:18:49;99658.53;;;8.17;90.75
7178;BME280;3630;42.146;24.756;2022-12-07T00:21:21;99633.44;;;8.04;90.80
7178;BME280;3630;42.146;24.756;2022-12-07T00:23:50;99652.59;;;8.18;90.55
7178;BME280;3630;42.146;24.756;2022-12-07T00:26:19;99660.31;;;8.19;90.51
7178;BME280;3630;42.146;24.756;2022-12-07T00:28:48;99625.66;;;7.99;90.55
7178;BME280;3630;42.146;24.756;2022-12-07T00:31:17;99652.59;;;8.18;90.25
7178;BME280;3630;42.146;24.756;2022-12-07T00:33:45;99650.75;;;8.12;90.21
7178;BME280;3630;42.146;24.756;2022-12-07T00:36:14;99662.69;;;8.13;90.25
7178;BME280;3630;42.146;24.756;2022-12-07T00:38:42;99663.47;;;8.11;90.49
7178;BME280;3630;42.146;24.756;2022-12-07T00:41:12;99655.00;;;8.12;90.34
7178;BME280;3630;42.146;24.756;2022-12-07T00:43:40;99633.53;;;8.07;90.61
7178;BME280;3630;42.146;24.756;2022-12-07T00:46:07;99653.50;;;8.20;90.38
7178;BME280;3630;42.146;24.756;2022-12-07T00:48:35;99656.84;;;8.17;90.62
7178;BME280;3630;42.146;24.756;2022-12-07T00:51:02;99649.22;;;8.19;90.32
7178;BME280;3630;42.146;24.756;2022-12-07T00:53:29;99652.59;;;8.18;90.16
7178;BME280;3630;42.146;24.756;2022-12-07T00:55:57;99654.91;;;8.09;90.01
7178;BME280;3630;42.146;24.756;2022-12-07T00:58:24;99652.34;;;8.09;89.44
7178;BME280;3630;42.146;24.756;2022-12-07T01:00:51;99654.78;;;8.04;89.45
7178;BME280;3630;42.146;24.756;2022-12-07T01:03:18;99649.47;;;7.98;89.82
7178;BME280;3630;42.146;24.756;2022-12-07T01:05:51;99648.53;;;7.95;89.98
7178;BME280;3630;42.146;24.756;2022-12-07T01:08:19;99643.41;;;7.95;89.99
7178;BME280;3630;42.146;24.756;2022-12-07T01:10:46;99643.56;;;7.99;89.92
7178;BME280;3630;42.146;24.756;2022-12-07T01:13:15;99638.44;;;7.99;89.61
7178;BME280;3630;42.146;24.756;2022-12-07T01:15:43;99647.91;;;8.03;89.72
7178;BME280;3630;42.146;24.756;2022-12-07T01:18:11;99639.53;;;8.07;89.75
7178;BME280;3630;42.146;24.756;2022-12-07T01:20:38;99640.44;;;8.11;89.14
7178;BME280;3630;42.146;24.756;2022-12-07T01:23:05;99633.53;;;8.07;89.08
7178;BME280;3630;42.146;24.756;2022-12-07T01:25:31;99640.28;;;8.05;89.11
7178;BME280;3630;42.146;24.756;2022-12-07T01:27:58;99637.59;;;8.00;88.91
7178;BME280;3630;42.146;24.756;2022-12-07T01:30:26;99630.75;;;7.99;88.90
7178;BME280;3630;42.146;24.756;2022-12-07T01:32:53;99635.88;;;7.99;88.98
7178;BME280;3630;42.146;24.756;2022-12-07T01:35:21;99635.00;;;7.99;88.85
7178;BME280;3630;42.146;24.756;2022-12-07T01:37:48;99622.22;;;7.99;88.64
7178;BME280;3630;42.146;24.756;2022-12-07T01:40:19;99618.72;;;7.97;88.98
7178;BME280;3630;42.146;24.756;2022-12-07T01:42:45;99616.94;;;7.94;89.19
7178;BME280;3630;42.146;24.756;2022-12-07T01:45:38;99609.19;;;7.91;89.57
7178;BME280;3630;42.146;24.756;2022-12-07T01:48:07;99607.38;;;7.87;89.74
7178;BME280;3630;42.146;24.756;2022-12-07T01:50:35;99606.38;;;7.82;89.77
7178;BME280;3630;42.146;24.756;2022-12-07T01:53:05;99608.84;;;7.79;89.68
7178;BME280;3630;42.146;24.756;2022-12-07T01:55:41;99605.31;;;7.76;89.55
7178;BME280;3630;42.146;24.756;2022-12-07T01:58:09;99595.59;;;7.64;89.66
7178;BME280;3630;42.146;24.756;2022-12-07T02:00:38;99609.53;;;7.73;89.70
7178;BME280;3630;42.146;24.756;2022-12-07T02:03:08;99610.50;;;7.77;89.85
7178;BME280;3630;42.146;24.756;2022-12-07T02:05:38;99614.78;;;7.78;89.75
7178;BME280;3630;42.146;24.756;2022-12-07T02:08:07;99606.19;;;7.76;89.87
7178;BME280;3630;42.146;24.756;2022-12-07T02:10:34;99607.09;;;7.78;90.07
7178;BME280;3630;42.146;24.756;2022-12-07T02:13:04;99607.88;;;7.76;90.15
7178;BME280;3630;42.146;24.756;2022-12-07T02:15:41;99607.06;;;7.77;90.16
7178;BME280;3630;42.146;24.756;2022-12-07T02:18:16;99604.59;;;7.80;90.03
7178;BME280;3630;42.146;24.756;2022-12-07T02:20:54;99595.94;;;7.75;89.99
7178;BME280;3630;42.146;24.756;2022-12-07T02:29:31;99584.94;;;7.77;89.45
7178;BME280;3630;42.146;24.756;2022-12-07T02:32:06;99578.06;;;7.76;89.29
7178;BME280;3630;42.146;24.756;2022-12-07T02:34:40;99583.31;;;7.81;89.13
7178;BME280;3630;42.146;24.756;2022-12-07T02:37:15;99569.44;;;7.72;89.02
7178;BME280;3630;42.146;24.756;2022-12-07T02:39:48;99578.75;;;7.70;89.71
7178;BME280;3630;42.146;24.756;2022-12-07T02:42:23;99578.66;;;7.67;89.61
7178;BME280;3630;42.146;24.756;2022-12-07T02:44:52;99581.19;;;7.66;89.66
7178;BME280;3630;42.146;24.756;2022-12-07T02:47:21;99582.88;;;7.65;90.17
7178;BME280;3630;42.146;24.756;2022-12-07T02:49:50;99582.66;;;7.58;90.19
7178;BME280;3630;42.146;24.756;2022-12-07T02:52:17;99584.47;;;7.62;90.01
7178;BME280;3630;42.146;24.756;2022-12-07T02:54:44;99569.91;;;7.59;89.50
7178;BME280;3630;42.146;24.756;2022-12-07T02:57:27;99573.34;;;7.60;89.79
7178;BME280;3630;42.146;24.756;2022-12-07T03:00:03;99564.00;;;7.60;89.47
7178;BME280;3630;42.146;24.756;2022-12-07T03:02:36;99555.47;;;7.61;89.49
7178;BME280;3630;42.146;24.756;2022-12-07T03:05:19;99564.13;;;7.66;89.19
7178;BME280;3630;42.146;24.756;2022-12-07T03:07:54;99560.00;;;7.70;89.32
7178;BME280;3630;42.146;24.756;2022-12-07T03:10:28;99559.91;;;7.67;89.18
7178;BME280;3630;42.146;24.756;2022-12-07T03:13:06;99563.22;;;7.64;89.12
7178;BME280;3630;42.146;24.756;2022-12-07T03:15:41;99565.97;;;7.70;88.73
7178;BME280;3630;42.146;24.756;2022-12-07T03:18:09;99569.34;;;7.69;88.70
7178;BME280;3630;42.146;24.756;2022-12-07T03:20:39;99571.97;;;7.71;88.77
7178;BME280;3630;42.146;24.756;2022-12-07T03:23:08;99572.84;;;7.71;88.20
7178;BME280;3630;42.146;24.756;2022-12-07T03:25:40;99581.41;;;7.73;87.85
7178;BME280;3630;42.146;24.756;2022-12-07T03:28:10;99582.31;;;7.76;87.86
7178;BME280;3630;42.146;24.756;2022-12-07T03:30:45;99545.34;;;7.64;87.91
7178;BME280;3630;42.146;24.756;2022-12-07T03:33:18;99572.16;;;7.79;87.97
7178;BME280;3630;42.146;24.756;2022-12-07T03:35:51;99546.41;;;7.72;87.70
7178;BME280;3630;42.146;24.756;2022-12-07T03:38:22;99568.88;;;7.83;88.12
7178;BME280;3630;42.146;24.756;2022-12-07T03:40:54;99571.34;;;7.80;88.41
7178;BME280;3630;42.146;24.756;2022-12-07T03:43:24;99570.41;;;7.76;89.08
7178;BME280;3630;42.146;24.756;2022-12-07T03:45:59;99572.94;;;7.75;89.04
7178;BME280;3630;42.146;24.756;2022-12-07T03:48:33;99570.31;;;7.73;89.34
7178;BME280;3630;42.146;24.756;2022-12-07T03:51:07;99547.88;;;7.63;88.94
7178;BME280;3630;42.146;24.756;2022-12-07T03:53:42;99573.03;;;7.79;88.26
7178;BME280;3630;42.146;24.756;2022-12-07T03:56:11;99542.06;;;7.68;87.95
7178;BME280;3630;42.146;24.756;2022-12-07T03:58:40;99560.19;;;7.78;87.83
7178;BME280;3630;42.146;24.756;2022-12-07T04:01:09;99560.25;;;7.79;87.38
7178;BME280;3630;42.146;24.756;2022-12-07T04:03:36;99561.03;;;7.77;87.68
7178;BME280;3630;42.146;24.756;2022-12-07T04:06:03;99557.59;;;7.76;87.25
7178;BME280;3630;42.146;24.756;2022-12-07T04:08:30;99560.06;;;7.73;86.65
7178;BME280;3630;42.146;24.756;2022-12-07T04:10:57;99564.28;;;7.71;86.41
7178;BME280;3630;42.146;24.756;2022-12-07T04:13:24;99560.84;;;7.69;86.08
7178;BME280;3630;42.146;24.756;2022-12-07T04:15:51;99558.97;;;7.63;86.15
7178;BME280;3630;42.146;24.756;2022-12-07T04:18:19;99542.38;;;7.51;85.77
7178;BME280;3630;42.146;24.756;2022-12-07T04:20:46;99561.28;;;7.56;85.85
7178;BME280;3630;42.146;24.756;2022-12-07T04:23:13;99550.13;;;7.52;85.59
7178;BME280;3630;42.146;24.756;2022-12-07T04:25:40;99553.38;;;7.47;85.70
7178;BME280;3630;42.146;24.756;2022-12-07T04:28:07;99553.31;;;7.45;85.42
7178;BME280;3630;42.146;24.756;2022-12-07T04:30:33;99546.28;;;7.38;85.33
7178;BME280;3630;42.146;24.756;2022-12-07T04:33:00;99554.72;;;7.36;85.71
7178;BME280;3630;42.146;24.756;2022-12-07T04:35:28;99553.78;;;7.34;85.43
7178;BME280;3630;42.146;24.756;2022-12-07T04:37:55;99551.22;;;7.32;85.45
7178;BME280;3630;42.146;24.756;2022-12-07T04:40:22;99550.41;;;7.33;85.75
7178;BME280;3630;42.146;24.756;2022-12-07T04:42:49;99552.09;;;7.33;85.30
7178;BME280;3630;42.146;24.756;2022-12-07T04:45:16;99554.56;;;7.31;85.24
7178;BME280;3630;42.146;24.756;2022-12-07T04:47:42;99556.31;;;7.32;84.97
7178;BME280;3630;42.146;24.756;2022-12-07T04:50:09;99550.16;;;7.26;85.03
7178;BME280;3630;42.146;24.756;2022-12-07T04:52:38;99550.00;;;7.20;85.63
7178;BME280;3630;42.146;24.756;2022-12-07T04:55:05;99552.47;;;7.18;86.27
7178;BME280;3630;42.146;24.756;2022-12-07T04:57:32;99551.56;;;7.16;86.14
7178;BME280;3630;42.146;24.756;2022-12-07T04:59:58;99550.50;;;7.09;87.21
7178;BME280;3630;42.146;24.756;2022-12-07T05:02:25;99556.38;;;7.07;87.42
7178;BME280;3630;42.146;24.756;2022-12-07T05:04:52;99555.31;;;7.00;87.75
7178;BME280;3630;42.146;24.756;2022-12-07T05:07:19;99568.19;;;7.03;87.26
7178;BME280;3630;42.146;24.756;2022-12-07T05:09:47;99493.78;;;6.65;87.17
7178;BME280;3630;42.146;24.756;2022-12-07T05:12:14;99565.91;;;7.11;87.27
7178;BME280;3630;42.146;24.756;2022-12-07T05:14:40;99565.81;;;7.08;87.17
7178;BME280;3630;42.146;24.756;2022-12-07T05:17:07;99562.03;;;6.97;87.37
7178;BME280;3630;42.146;24.756;2022-12-07T05:19:34;99562.94;;;6.99;87.78
7178;BME280;3630;42.146;24.756;2022-12-07T05:22:01;99552.69;;;6.97;88.28
7178;BME280;3630;42.146;24.756;2022-12-07T05:24:28;99564.59;;;6.97;88.38
7178;BME280;3630;42.146;24.756;2022-12-07T05:26:56;99540.09;;;6.77;89.14
7178;BME280;3630;42.146;24.756;2022-12-07T05:29:23;99567.72;;;6.88;89.71
7178;BME280;3630;42.146;24.756;2022-12-07T05:31:50;99564.94;;;6.81;89.96
7178;BME280;3630;42.146;24.756;2022-12-07T05:34:17;99552.66;;;6.71;91.10
7178;BME280;3630;42.146;24.756;2022-12-07T05:36:44;99576.97;;;6.85;92.30
7178;BME280;3630;42.146;24.756;2022-12-07T05:39:10;99573.72;;;6.89;91.93
7178;BME280;3630;42.146;24.756;2022-12-07T05:41:37;99571.28;;;6.93;91.87
7178;BME280;3630;42.146;24.756;2022-12-07T05:44:23;99568.81;;;6.95;91.81
7178;BME280;3630;42.146;24.756;2022-12-07T05:46:49;99562.97;;;7.00;92.18
7178;BME280;3630;42.146;24.756;2022-12-07T05:49:16;99563.09;;;7.03;91.69
7178;BME280;3630;42.146;24.756;2022-12-07T05:51:43;99562.25;;;7.03;91.78
7178;BME280;3630;42.146;24.756;2022-12-07T05:54:10;99568.16;;;7.02;92.65
7178;BME280;3630;42.146;24.756;2022-12-07T05:56:37;99555.59;;;7.08;92.42
7178;BME280;3630;42.146;24.756;2022-12-07T05:59:04;99561.50;;;7.07;92.39
7178;BME280;3630;42.146;24.756;2022-12-07T06:01:55;99573.69;;;7.16;92.27
7178;BME280;3630;42.146;24.756;2022-12-07T06:04:23;99584.88;;;7.19;91.56
7178;BME280;3630;42.146;24.756;2022-12-07T06:06:51;99573.13;;;7.24;91.41
7178;BME280;3630;42.146;24.756;2022-12-07T06:09:19;99573.25;;;7.29;91.03
7178;BME280;3630;42.146;24.756;2022-12-07T06:11:46;99571.38;;;7.23;90.79
7178;BME280;3630;42.146;24.756;2022-12-07T06:14:31;99572.44;;;7.30;90.67
7178;BME280;3630;42.146;24.756;2022-12-07T06:16:59;99579.31;;;7.32;90.59
7178;BME280;3630;42.146;24.756;2022-12-07T06:19:26;99583.53;;;7.30;90.32
7178;BME280;3630;42.146;24.756;2022-12-07T06:21:53;99572.28;;;7.25;90.72
7178;BME280;3630;42.146;24.756;2022-12-07T06:24:20;99571.66;;;7.32;90.33
7178;BME280;3630;42.146;24.756;2022-12-07T06:26:48;99562.16;;;7.28;90.48
7178;BME280;3630;42.146;24.756;2022-12-07T06:29:15;99586.50;;;7.44;90.21
7178;BME280;3630;42.146;24.756;2022-12-07T06:31:43;99585.81;;;7.49;89.57
7178;BME280;3630;42.146;24.756;2022-12-07T06:34:14;99582.50;;;7.53;89.43
7178;BME280;3630;42.146;24.756;2022-12-07T06:36:41;99579.91;;;7.52;89.13
7178;BME280;3630;42.146;24.756;2022-12-07T06:39:08;99555.72;;;7.41;88.50
7178;BME280;3630;42.146;24.756;2022-12-07T06:41:35;99582.69;;;7.59;88.08
7178;BME280;3630;42.146;24.756;2022-12-07T06:44:03;99537.69;;;7.36;87.94
7178;BME280;3630;42.146;24.756;2022-12-07T06:46:30;99594.81;;;7.66;87.84
7178;BME280;3630;42.146;24.756;2022-12-07T06:48:57;99589.00;;;7.70;87.78
7178;BME280;3630;42.146;24.756;2022-12-07T06:51:25;99578.94;;;7.77;87.48
7178;BME280;3630;42.146;24.756;2022-12-07T06:53:52;99577.41;;;7.83;87.36
7178;BME280;3630;42.146;24.756;2022-12-07T06:56:18;99589.59;;;7.92;87.29
7178;BME280;3630;42.146;24.756;2022-12-07T06:58:45;99583.84;;;7.99;86.70
7178;BME280;3630;42.146;24.756;2022-12-07T07:01:13;99565.88;;;7.97;86.04
7178;BME280;3630;42.146;24.756;2022-12-07T07:03:41;99562.50;;;7.98;85.45
7178;BME280;3630;42.146;24.756;2022-12-07T07:06:08;99568.56;;;8.02;85.29
7178;BME280;3630;42.146;24.756;2022-12-07T07:08:37;99558.63;;;8.12;85.33
7178;BME280;3630;42.146;24.756;2022-12-07T07:11:05;99567.41;;;8.22;85.44
7178;BME280;3630;42.146;24.756;2022-12-07T07:13:32;99576.97;;;8.27;85.35
7178;BME280;3630;42.146;24.756;2022-12-07T07:15:59;99570.75;;;8.19;85.38
7178;BME280;3630;42.146;24.756;2022-12-07T07:18:26;99585.59;;;8.31;85.41
7178;BME280;3630;42.146;24.756;2022-12-07T07:20:53;99584.00;;;8.35;85.28
7178;BME280;3630;42.146;24.756;2022-12-07T07:23:20;99581.66;;;8.44;85.61
7178;BME280;3630;42.146;24.756;2022-12-07T07:25:49;99583.66;;;8.54;84.91
7178;BME280;3630;42.146;24.756;2022-12-07T07:28:16;99577.13;;;8.66;84.47
7178;BME280;3630;42.146;24.756;2022-12-07T07:30:43;99584.16;;;8.73;84.27
7178;BME280;3630;42.146;24.756;2022-12-07T07:33:10;99560.09;;;8.68;83.54
7178;BME280;3630;42.146;24.756;2022-12-07T07:35:37;99570.81;;;8.88;83.56
7178;BME280;3630;42.146;24.756;2022-12-07T07:38:04;99575.16;;;8.90;83.50
7178;BME280;3630;42.146;24.756;2022-12-07T07:40:31;99580.28;;;8.90;83.14
7178;BME280;3630;42.146;24.756;2022-12-07T07:43:00;99584.66;;;8.95;82.97
7178;BME280;3630;42.146;24.756;2022-12-07T07:45:28;99597.47;;;8.95;82.59
7178;BME280;3630;42.146;24.756;2022-12-07T07:47:55;99593.31;;;9.00;82.59
7178;BME280;3630;42.146;24.756;2022-12-07T07:50:22;99596.78;;;9.02;81.95
7178;BME280;3630;42.146;24.756;2022-12-07T07:52:49;99592.50;;;9.01;81.96
7178;BME280;3630;42.146;24.756;2022-12-07T07:55:16;99603.88;;;9.12;82.44
7178;BME280;3630;42.146;24.756;2022-12-07T07:57:42;99598.69;;;9.09;83.35
7178;BME280;3630;42.146;24.756;2022-12-07T08:00:13;99595.41;;;9.16;83.53
7178;BME280;3630;42.146;24.756;2022-12-07T08:02:41;99596.34;;;9.19;83.56
7178;BME280;3630;42.146;24.756;2022-12-07T08:05:09;99593.97;;;9.27;83.30
7178;BME280;3630;42.146;24.756;2022-12-07T08:07:37;99575.06;;;9.23;82.70
7178;BME280;3630;42.146;24.756;2022-12-07T08:10:05;99597.78;;;9.44;82.33
7178;BME280;3630;42.146;24.756;2022-12-07T08:12:35;99574.66;;;9.42;82.02
7178;BME280;3630;42.146;24.756;2022-12-07T08:15:03;99569.72;;;9.52;81.17
7178;BME280;3630;42.146;24.756;2022-12-07T08:17:31;99597.56;;;9.72;81.38
7178;BME280;3630;42.146;24.756;2022-12-07T08:19:59;99603.72;;;9.80;81.09
7178;BME280;3630;42.146;24.756;2022-12-07T08:22:26;99601.09;;;9.79;80.34
7178;BME280;3630;42.146;24.756;2022-12-07T08:24:53;99594.28;;;9.79;80.68
7178;BME280;3630;42.146;24.756;2022-12-07T08:27:19;99598.31;;;9.68;80.71
7178;BME280;3630;42.146;24.756;2022-12-07T08:29:49;99586.06;;;9.57;80.93
7178;BME280;3630;42.146;24.756;2022-12-07T08:32:16;99584.53;;;9.65;81.17
7178;BME280;3630;42.146;24.756;2022-12-07T08:34:44;99594.66;;;9.57;81.85
7178;BME280;3630;42.146;24.756;2022-12-07T08:37:11;99600.00;;;9.68;81.23
7178;BME280;3630;42.146;24.756;2022-12-07T08:39:37;99594.88;;;9.68;81.79
7178;BME280;3630;42.146;24.756;2022-12-07T08:42:04;99588.84;;;9.66;82.33
7178;BME280;3630;42.146;24.756;2022-12-07T08:44:31;99586.63;;;9.82;81.82
7178;BME280;3630;42.146;24.756;2022-12-07T08:47:02;99585.97;;;9.92;80.99
7178;BME280;3630;42.146;24.756;2022-12-07T08:49:32;99581.00;;;10.00;81.00
7178;BME280;3630;42.146;24.756;2022-12-07T08:52:04;99564.09;;;10.11;81.20
7178;BME280;3630;42.146;24.756;2022-12-07T08:54:33;99571.38;;;10.32;80.71
7178;BME280;3630;42.146;24.756;2022-12-07T08:57:01;99577.47;;;10.37;80.07
7178;BME280;3630;42.146;24.756;2022-12-07T08:59:28;99576.63;;;10.38;80.32
7178;BME280;3630;42.146;24.756;2022-12-07T09:01:55;99551.78;;;10.38;80.14
7178;BME280;3630;42.146;24.756;2022-12-07T09:04:22;99558.72;;;10.42;79.25
7178;BME280;3630;42.146;24.756;2022-12-07T09:06:49;99555.69;;;10.64;78.92
7178;BME280;3630;42.146;24.756;2022-12-07T09:09:17;99555.97;;;10.81;78.54
7178;BME280;3630;42.146;24.756;2022-12-07T09:11:44;99553.56;;;10.92;77.51
7178;BME280;3630;42.146;24.756;2022-12-07T09:14:12;99542.91;;;10.69;77.85
7178;BME280;3630;42.146;24.756;2022-12-07T09:16:38;99533.44;;;10.66;77.75
7178;BME280;3630;42.146;24.756;2022-12-07T09:19:05;99537.53;;;10.55;78.30
7178;BME280;3630;42.146;24.756;2022-12-07T09:21:37;99533.38;;;10.62;78.59
7178;BME280;3630;42.146;24.756;2022-12-07T09:24:05;99526.63;;;10.67;77.88
7178;BME280;3630;42.146;24.756;2022-12-07T09:26:33;99519.16;;;10.84;78.11
7178;BME280;3630;42.146;24.756;2022-12-07T09:29:00;99519.06;;;10.78;77.57
7178;BME280;3630;42.146;24.756;2022-12-07T09:31:28;99524.41;;;10.90;77.53
7178;BME280;3630;42.146;24.756;2022-12-07T09:33:55;99515.78;;;10.85;76.96
7178;BME280;3630;42.146;24.756;2022-12-07T09:36:22;99513.16;;;10.83;77.12
7178;BME280;3630;42.146;24.756;2022-12-07T09:38:49;99501.34;;;10.94;77.16
7178;BME280;3630;42.146;24.756;2022-12-07T09:41:15;99508.41;;;11.09;76.44
7178;BME280;3630;42.146;24.756;2022-12-07T09:43:44;99495.75;;;11.24;76.70
7178;BME280;3630;42.146;24.756;2022-12-07T09:46:15;99499.25;;;11.27;75.85
7178;BME280;3630;42.146;24.756;2022-12-07T09:48:43;99490.22;;;10.95;76.10
7178;BME280;3630;42.146;24.756;2022-12-07T09:51:15;99462.59;;;10.81;76.11
7178;BME280;3630;42.146;24.756;2022-12-07T09:53:43;99486.94;;;11.04;76.19
7178;BME280;3630;42.146;24.756;2022-12-07T09:56:11;99484.41;;;11.10;75.50
7178;BME280;3630;42.146;24.756;2022-12-07T09:58:39;99488.69;;;11.08;75.04
7178;BME280;3630;42.146;24.756;2022-12-07T10:01:13;99489.50;;;11.05;75.89
7178;BME280;3630;42.146;24.756;2022-12-07T10:03:54;99484.59;;;11.20;74.92
7178;BME280;3630;42.146;24.756;2022-12-07T10:06:23;99471.91;;;11.34;74.80
7178;BME280;3630;42.146;24.756;2022-12-07T10:08:50;99477.00;;;11.33;74.86
7178;BME280;3630;42.146;24.756;2022-12-07T10:11:17;99477.06;;;11.34;74.56
7178;BME280;3630;42.146;24.756;2022-12-07T10:13:44;99480.59;;;11.42;74.46
7178;BME280;3630;42.146;24.756;2022-12-07T10:16:36;99476.41;;;11.52;74.87
7178;BME280;3630;42.146;24.756;2022-12-07T10:19:24;99472.47;;;11.78;74.08
7178;BME280;3630;42.146;24.756;2022-12-07T10:22:09;99471.63;;;11.80;73.15
7178;BME280;3630;42.146;24.756;2022-12-07T10:24:37;99462.78;;;11.60;73.28
7178;BME280;3630;42.146;24.756;2022-12-07T10:27:17;99456.16;;;11.79;73.10
7178;BME280;3630;42.146;24.756;2022-12-07T10:29:47;99450.06;;;11.69;72.47
7178;BME280;3630;42.146;24.756;2022-12-07T10:32:29;99449.34;;;11.84;72.61
7178;BME280;3630;42.146;24.756;2022-12-07T10:35:19;99442.56;;;11.92;72.71
7178;BME280;3630;42.146;24.756;2022-12-07T10:37:46;99435.78;;;12.00;72.71
7178;BME280;3630;42.146;24.756;2022-12-07T10:40:26;99443.63;;;12.11;73.19
7178;BME280;3630;42.146;24.756;2022-12-07T10:43:18;99439.44;;;12.22;71.79
7178;BME280;3630;42.146;24.756;2022-12-07T10:46:10;99450.47;;;12.10;70.94
7178;BME280;3630;42.146;24.756;2022-12-07T10:48:52;99455.56;;;12.04;71.88
7178;BME280;3630;42.146;24.756;2022-12-07T10:51:27;99447.81;;;12.00;72.09
7178;BME280;3630;42.146;24.756;2022-12-07T10:54:07;99451.25;;;12.00;72.12
7178;BME280;3630;42.146;24.756;2022-12-07T10:56:56;99445.28;;;12.06;72.57
7178;BME280;3630;42.146;24.756;2022-12-07T10:59:51;99441.94;;;12.16;72.50
7178;BME280;3630;42.146;24.756;2022-12-07T11:02:26;99432.59;;;12.28;71.97
7178;BME280;3630;42.146;24.756;2022-12-07T11:05:06;99436.06;;;12.32;71.81
7178;BME280;3630;42.146;24.756;2022-12-07T11:07:43;99433.47;;;12.27;71.67
7178;BME280;3630;42.146;24.756;2022-12-07T11:10:19;99422.38;;;12.37;71.61
7178;BME280;3630;42.146;24.756;2022-12-07T11:13:04;99425.84;;;12.41;71.93
7178;BME280;3630;42.146;24.756;2022-12-07T11:15:54;99417.22;;;12.36;71.51
7178;BME280;3630;42.146;24.756;2022-12-07T11:18:28;99422.41;;;12.45;71.31
7178;BME280;3630;42.146;24.756;2022-12-07T11:21:07;99419.91;;;12.51;70.99
7178;BME280;3630;42.146;24.756;2022-12-07T11:23:44;99406.13;;;12.46;71.10
7178;BME280;3630;42.146;24.756;2022-12-07T11:26:21;99410.41;;;12.47;71.32
7178;BME280;3630;42.146;24.756;2022-12-07T11:29:18;99403.50;;;12.44;71.54
7178;BME280;3630;42.146;24.756;2022-12-07T11:31:54;99403.50;;;12.38;71.61
7178;BME280;3630;42.146;24.756;2022-12-07T11:34:31;99398.34;;;12.40;72.04
7178;BME280;3630;42.146;24.756;2022-12-07T11:37:09;99394.13;;;12.51;72.38
7178;BME280;3630;42.146;24.756;2022-12-07T11:39:41;99399.31;;;12.54;70.95
7178;BME280;3630;42.146;24.756;2022-12-07T11:42:15;99363.09;;;12.39;70.48
7178;BME280;3630;42.146;24.756;2022-12-07T11:44:49;99392.47;;;12.58;70.20
7178;BME280;3630;42.146;24.756;2022-12-07T11:47:21;99320.88;;;12.17;70.22
7178;BME280;3630;42.146;24.756;2022-12-07T11:49:54;99389.06;;;12.65;70.76
7178;BME280;3630;42.146;24.756;2022-12-07T11:52:27;99386.41;;;12.53;71.13
7178;BME280;3630;42.146;24.756;2022-12-07T11:54:57;99378.72;;;12.57;71.48
7178;BME280;3630;42.146;24.756;2022-12-07T11:57:33;99377.03;;;12.62;71.35
7178;BME280;3630;42.146;24.756;2022-12-07T12:00:05;99371.91;;;12.70;71.65
7178;BME280;3630;42.146;24.756;2022-12-07T12:02:39;99377.13;;;12.79;71.10
7178;BME280;3630;42.146;24.756;2022-12-07T12:05:15;99372.91;;;12.93;70.15
7178;BME280;3630;42.146;24.756;2022-12-07T12:07:45;99373.78;;;13.01;69.34
7178;BME280;3630;42.146;24.756;2022-12-07T12:10:19;99371.22;;;13.06;69.64
7178;BME280;3630;42.146;24.756;2022-12-07T12:13:13;99354.97;;;13.13;69.34
7178;BME280;3630;42.146;24.756;2022-12-07T12:16:02;99242.09;;;12.50;69.16
7178;BME280;3630;42.146;24.756;2022-12-07T12:18:48;99356.72;;;13.18;68.68
7178;BME280;3630;42.146;24.756;2022-12-07T12:21:20;99355.84;;;13.27;68.63
7178;BME280;3630;42.146;24.756;2022-12-07T12:23:56;99355.91;;;13.37;68.32
7178;BME280;3630;42.146;24.756;2022-12-07T12:26:26;99352.44;;;13.31;67.13
7178;BME280;3630;42.146;24.756;2022-12-07T12:28:56;99361.06;;;13.34;67.63
7178;BME280;3630;42.146;24.756;2022-12-07T12:31:34;99352.44;;;13.35;67.59
7178;BME280;3630;42.146;24.756;2022-12-07T12:34:04;99353.31;;;13.36;68.01
7178;BME280;3630;42.146;24.756;2022-12-07T12:36:45;99335.22;;;13.28;68.03
7178;BME280;3630;42.146;24.756;2022-12-07T12:39:15;99336.97;;;13.29;67.88
7178;BME280;3630;42.146;24.756;2022-12-07T12:42:00;99331.81;;;13.29;67.89
7178;BME280;3630;42.146;24.756;2022-12-07T12:45:04;99333.38;;;13.03;67.75
7178;BME280;3630;42.146;24.756;2022-12-07T12:47:51;99332.59;;;13.07;68.29
7178;BME280;3630;42.146;24.756;2022-12-07T12:50:21;99330.84;;;13.08;68.88
7178;BME280;3630;42.146;24.756;2022-12-07T12:53:01;99327.44;;;13.10;68.86
7178;BME280;3630;42.146;24.756;2022-12-07T12:56:14;99294.66;;;12.92;69.01
7178;BME280;3630;42.146;24.756;2022-12-07T12:58:47;99322.16;;;12.96;68.68
7178;BME280;3630;42.146;24.756;2022-12-07T13:01:44;99327.34;;;13.02;69.05
7178;BME280;3630;42.146;24.756;2022-12-07T13:04:23;99323.91;;;13.02;69.06
7178;BME280;3630;42.146;24.756;2022-12-07T13:06:51;99334.13;;;12.78;69.39
7178;BME280;3630;42.146;24.756;2022-12-07T13:09:21;99318.69;;;12.84;69.49
7178;BME280;3630;42.146;24.756;2022-12-07T13:11:56;99317.88;;;12.91;69.13
7178;BME280;3630;42.146;24.756;2022-12-07T13:14:52;99313.56;;;12.94;69.31
7178;BME280;3630;42.146;24.756;2022-12-07T13:17:57;99320.47;;;12.97;69.68
7178;BME280;3630;42.146;24.756;2022-12-07T13:20:56;99323.94;;;13.03;69.21
7178;BME280;3630;42.146;24.756;2022-12-07T13:23:26;99318.78;;;13.07;68.97
7178;BME280;3630;42.146;24.756;2022-12-07T13:26:04;99320.50;;;13.06;69.46
7178;BME280;3630;42.146;24.756;2022-12-07T13:28:36;99319.69;;;13.07;68.79
7178;BME280;3630;42.146;24.756;2022-12-07T13:31:13;99321.41;;;13.08;68.17
7178;BME280;3630;42.146;24.756;2022-12-07T13:33:43;99311.84;;;12.96;68.90
7178;BME280;3630;42.146;24.756;2022-12-07T13:36:17;99330.78;;;12.95;69.36
7178;BME280;3630;42.146;24.756;2022-12-07T13:38:50;99326.50;;;12.96;69.25
7178;BME280;3630;42.146;24.756;2022-12-07T13:41:19;99321.34;;;12.96;69.31
7178;BME280;3630;42.146;24.756;2022-12-07T13:43:51;99328.19;;;12.94;69.36
7178;BME280;3630;42.146;24.756;2022-12-07T13:46:24;99322.19;;;12.95;69.15